sensor_id;sensor_type;location;lat;lon;timestamp;pressure;altitude;pressure_sealevel;temperature;humidity
6198;BME280;3132;42.622;23.328;2022-07-30T00:00:38;92896.47;;;22.75;49.07
6198;BME280;3132;42.622;23.328;2022-07-30T00:03:04;92879.75;;;22.59;49.17
6198;BME280;3132;42.622;23.328;2022-07-30T00:05:29;92885.75;;;22.56;49.28
6198;BME280;3132;42.622;23.328;2022-07-30T00:07:55;92890.47;;;22.47;49.73
6198;BME280;3132;42.622;23.328;2022-07-30T00:10:20;92883.41;;;22.39;49.55
6198;BME280;3132;42.622;23.328;2022-07-30T00:12:47;92877.06;;;22.59;49.20
6198;BME280;3132;42.622;23.328;2022-07-30T00:15:12;92859.38;;;22.36;49.53
6198;BME280;3132;42.622;23.328;2022-07-30T00:17:38;92883.22;;;22.48;49.23
6198;BME280;3132;42.622;23.328;2022-07-30T00:20:04;92882.22;;;22.37;50.11
6198;BME280;3132;42.622;23.328;2022-07-30T00:22:30;92881.78;;;22.19;51.97
6198;BME280;3132;42.622;23.328;2022-07-30T00:24:55;92868.28;;;21.96;53.15
6198;BME280;3132;42.622;23.328;2022-07-30T00:27:21;92880.06;;;22.11;53.61
6198;BME280;3132;42.622;23.328;2022-07-30T00:29:46;92838.28;;;21.53;54.85
6198;BME280;3132;42.622;23.328;2022-07-30T00:32:12;92882.00;;;21.83;55.12
6198;BME280;3132;42.622;23.328;2022-07-30T00:34:37;92886.28;;;21.87;55.56
6198;BME280;3132;42.622;23.328;2022-07-30T00:37:02;92888.97;;;21.87;57.14
6198;BME280;3132;42.622;23.328;2022-07-30T00:39:28;92873.88;;;21.76;57.21
6198;BME280;3132;42.622;23.328;2022-07-30T00:41:59;92879.38;;;21.71;58.53
6198;BME280;3132;42.622;23.328;2022-07-30T00:44:26;92883.88;;;21.55;59.48
6198;BME280;3132;42.622;23.328;2022-07-30T00:46:52;92878.22;;;21.29;60.59
6198;BME280;3132;42.622;23.328;2022-07-30T00:49:17;92869.63;;;21.20;61.11
6198;BME280;3132;42.622;23.328;2022-07-30T00:51:43;92882.25;;;21.23;61.21
6198;BME280;3132;42.622;23.328;2022-07-30T00:54:08;92875.06;;;21.11;61.29
6198;BME280;3132;42.622;23.328;2022-07-30T00:56:34;92870.25;;;21.01;62.43
6198;BME280;3132;42.622;23.328;2022-07-30T00:58:59;92873.66;;;21.02;62.05
6198;BME280;3132;42.622;23.328;2022-07-30T01:01:24;92882.63;;;20.97;62.71
6198;BME280;3132;42.622;23.328;2022-07-30T01:03:50;92879.66;;;20.75;64.08
6198;BME280;3132;42.622;23.328;2022-07-30T01:06:15;92873.34;;;20.79;63.98
6198;BME280;3132;42.622;23.328;2022-07-30T01:08:41;92876.56;;;20.73;63.85
6198;BME280;3132;42.622;23.328;2022-07-30T01:11:08;92870.03;;;20.82;63.94
6198;BME280;3132;42.622;23.328;2022-07-30T01:13:34;92865.75;;;20.53;64.85
6198;BME280;3132;42.622;23.328;2022-07-30T01:15:59;92871.38;;;20.64;64.93
6198;BME280;3132;42.622;23.328;2022-07-30T01:18:25;92874.81;;;20.64;65.58
6198;BME280;3132;42.622;23.328;2022-07-30T01:21:14;92877.91;;;20.54;65.90
6198;BME280;3132;42.622;23.328;2022-07-30T01:23:44;92877.25;;;20.57;66.13
6198;BME280;3132;42.622;23.328;2022-07-30T01:26:15;92883.44;;;20.49;66.04
6198;BME280;3132;42.622;23.328;2022-07-30T01:28:45;92871.06;;;20.29;67.32
6198;BME280;3132;42.622;23.328;2022-07-30T01:31:12;92859.69;;;20.29;67.53
6198;BME280;3132;42.622;23.328;2022-07-30T01:33:41;92881.00;;;20.32;67.88
6198;BME280;3132;42.622;23.328;2022-07-30T01:36:11;92871.72;;;20.38;67.63
6198;BME280;3132;42.622;23.328;2022-07-30T01:38:39;92881.84;;;20.12;69.00
6198;BME280;3132;42.622;23.328;2022-07-30T01:41:06;92867.03;;;20.11;68.98
6198;BME280;3132;42.622;23.328;2022-07-30T01:43:33;92878.13;;;20.13;69.20
6198;BME280;3132;42.622;23.328;2022-07-30T01:46:01;92879.31;;;20.16;69.52
6198;BME280;3132;42.622;23.328;2022-07-30T01:48:28;92862.03;;;19.86;70.15
6198;BME280;3132;42.622;23.328;2022-07-30T01:50:57;92880.03;;;19.92;69.78
6198;BME280;3132;42.622;23.328;2022-07-30T01:53:26;92878.94;;;19.93;70.42
6198;BME280;3132;42.622;23.328;2022-07-30T01:55:54;92877.16;;;19.85;70.67
6198;BME280;3132;42.622;23.328;2022-07-30T01:58:22;92855.50;;;19.71;70.97
6198;BME280;3132;42.622;23.328;2022-07-30T02:00:49;92884.44;;;19.76;71.17
6198;BME280;3132;42.622;23.328;2022-07-30T02:03:16;92872.03;;;19.68;71.72
6198;BME280;3132;42.622;23.328;2022-07-30T02:05:44;92880.53;;;19.74;71.85
6198;BME280;3132;42.622;23.328;2022-07-30T02:08:19;92873.19;;;19.79;71.35
6198;BME280;3132;42.622;23.328;2022-07-30T02:11:09;92876.19;;;19.57;72.69
6198;BME280;3132;42.622;23.328;2022-07-30T02:13:46;92869.78;;;19.58;72.82
6198;BME280;3132;42.622;23.328;2022-07-30T02:16:18;92879.97;;;19.56;72.85
6198;BME280;3132;42.622;23.328;2022-07-30T02:18:56;92856.53;;;19.46;72.56
6198;BME280;3132;42.622;23.328;2022-07-30T02:21:28;92853.56;;;19.48;72.87
6198;BME280;3132;42.622;23.328;2022-07-30T02:23:56;92851.19;;;19.34;73.52
6198;BME280;3132;42.622;23.328;2022-07-30T02:26:23;92865.56;;;19.45;73.28
6198;BME280;3132;42.622;23.328;2022-07-30T02:28:53;92847.44;;;19.35;72.95
6198;BME280;3132;42.622;23.328;2022-07-30T02:31:22;92842.59;;;19.37;73.08
6198;BME280;3132;42.622;23.328;2022-07-30T02:33:49;92865.13;;;19.43;73.07
6198;BME280;3132;42.622;23.328;2022-07-30T02:36:18;92847.69;;;19.42;72.71
6198;BME280;3132;42.622;23.328;2022-07-30T02:38:45;92850.53;;;19.37;72.68
6198;BME280;3132;42.622;23.328;2022-07-30T02:41:11;92837.66;;;19.27;72.61
6198;BME280;3132;42.622;23.328;2022-07-30T02:43:39;92858.28;;;19.42;73.49
6198;BME280;3132;42.622;23.328;2022-07-30T02:46:06;92865.50;;;19.33;74.60
6198;BME280;3132;42.622;23.328;2022-07-30T02:48:32;92822.06;;;19.13;74.04
6198;BME280;3132;42.622;23.328;2022-07-30T02:50:59;92861.59;;;19.39;74.12
6198;BME280;3132;42.622;23.328;2022-07-30T02:53:26;92851.72;;;19.28;74.34
6198;BME280;3132;42.622;23.328;2022-07-30T02:55:54;92848.69;;;19.17;74.10
6198;BME280;3132;42.622;23.328;2022-07-30T02:58:22;92861.91;;;19.17;75.56
6198;BME280;3132;42.622;23.328;2022-07-30T03:00:50;92851.72;;;19.28;75.71
6198;BME280;3132;42.622;23.328;2022-07-30T03:03:17;92859.47;;;19.12;75.79
6198;BME280;3132;42.622;23.328;2022-07-30T03:05:43;92838.28;;;19.12;75.16
6198;BME280;3132;42.622;23.328;2022-07-30T03:08:13;92832.47;;;18.98;75.78
6198;BME280;3132;42.622;23.328;2022-07-30T03:10:40;92849.00;;;18.95;76.89
6198;BME280;3132;42.622;23.328;2022-07-30T03:13:09;92852.34;;;19.04;76.99
6198;BME280;3132;42.622;23.328;2022-07-30T03:15:36;92849.50;;;19.09;76.48
6198;BME280;3132;42.622;23.328;2022-07-30T03:18:07;92850.16;;;19.06;76.13
6198;BME280;3132;42.622;23.328;2022-07-30T03:20:37;92851.84;;;19.10;76.36
6198;BME280;3132;42.622;23.328;2022-07-30T03:23:04;92852.81;;;19.06;76.48
6198;BME280;3132;42.622;23.328;2022-07-30T03:25:31;92846.31;;;19.03;75.63
6198;BME280;3132;42.622;23.328;2022-07-30T03:27:58;92851.13;;;19.22;75.17
6198;BME280;3132;42.622;23.328;2022-07-30T03:30:25;92852.09;;;19.38;75.19
6198;BME280;3132;42.622;23.328;2022-07-30T03:32:52;92854.78;;;19.50;74.65
6198;BME280;3132;42.622;23.328;2022-07-30T03:35:20;92854.06;;;19.41;74.09
6198;BME280;3132;42.622;23.328;2022-07-30T03:37:55;92855.41;;;19.47;74.27
6198;BME280;3132;42.622;23.328;2022-07-30T03:40:21;92859.81;;;19.43;74.64
6198;BME280;3132;42.622;23.328;2022-07-30T03:42:48;92842.00;;;19.32;74.89
6198;BME280;3132;42.622;23.328;2022-07-30T03:45:14;92860.81;;;19.39;75.33
6198;BME280;3132;42.622;23.328;2022-07-30T03:47:41;92848.13;;;19.44;74.78
6198;BME280;3132;42.622;23.328;2022-07-30T03:50:08;92850.56;;;19.49;74.81
6198;BME280;3132;42.622;23.328;2022-07-30T03:52:37;92838.66;;;19.43;75.61
6198;BME280;3132;42.622;23.328;2022-07-30T03:55:03;92863.25;;;19.76;74.39
6198;BME280;3132;42.622;23.328;2022-07-30T03:57:30;92859.69;;;19.72;74.83
6198;BME280;3132;42.622;23.328;2022-07-30T03:59:56;92865.34;;;19.83;74.48
6198;BME280;3132;42.622;23.328;2022-07-30T04:02:21;92860.47;;;19.85;74.50
6198;BME280;3132;42.622;23.328;2022-07-30T04:04:47;92863.91;;;19.97;75.32
6198;BME280;3132;42.622;23.328;2022-07-30T04:07:12;92866.16;;;20.07;74.78
6198;BME280;3132;42.622;23.328;2022-07-30T04:09:38;92864.88;;;20.25;73.98
6198;BME280;3132;42.622;23.328;2022-07-30T04:12:03;92832.16;;;20.09;74.31
6198;BME280;3132;42.622;23.328;2022-07-30T04:14:41;92865.97;;;20.36;74.50
6198;BME280;3132;42.622;23.328;2022-07-30T04:17:29;92872.38;;;20.59;74.29
6198;BME280;3132;42.622;23.328;2022-07-30T04:20:00;92869.63;;;20.56;74.62
6198;BME280;3132;42.622;23.328;2022-07-30T04:22:31;92865.63;;;20.62;74.89
6198;BME280;3132;42.622;23.328;2022-07-30T04:24:59;92881.66;;;20.78;74.40
6198;BME280;3132;42.622;23.328;2022-07-30T04:27:26;92875.88;;;21.00;73.37
6198;BME280;3132;42.622;23.328;2022-07-30T04:29:52;92859.94;;;21.00;73.02
6198;BME280;3132;42.622;23.328;2022-07-30T04:32:18;92866.25;;;21.07;71.82
6198;BME280;3132;42.622;23.328;2022-07-30T04:34:54;92877.13;;;21.30;71.64
6198;BME280;3132;42.622;23.328;2022-07-30T04:37:25;92872.88;;;21.41;69.42
6198;BME280;3132;42.622;23.328;2022-07-30T04:39:52;92870.34;;;21.60;66.97
6198;BME280;3132;42.622;23.328;2022-07-30T04:42:23;92877.63;;;21.75;65.70
6198;BME280;3132;42.622;23.328;2022-07-30T04:44:49;92883.88;;;21.82;65.14
6198;BME280;3132;42.622;23.328;2022-07-30T04:47:15;92881.69;;;22.00;63.81
6198;BME280;3132;42.622;23.328;2022-07-30T04:49:41;92875.00;;;22.06;64.30
6198;BME280;3132;42.622;23.328;2022-07-30T04:52:08;92889.53;;;22.24;64.09
6198;BME280;3132;42.622;23.328;2022-07-30T04:54:55;92890.13;;;22.33;63.25
6198;BME280;3132;42.622;23.328;2022-07-30T04:57:23;92888.56;;;22.48;62.28
6198;BME280;3132;42.622;23.328;2022-07-30T04:59:49;92872.69;;;22.51;61.76
6198;BME280;3132;42.622;23.328;2022-07-30T05:02:17;92897.66;;;22.78;59.30
6198;BME280;3132;42.622;23.328;2022-07-30T05:04:43;92886.88;;;22.40;60.49
6198;BME280;3132;42.622;23.328;2022-07-30T05:07:11;92878.22;;;22.58;61.17
6198;BME280;3132;42.622;23.328;2022-07-30T05:09:38;92872.78;;;22.23;59.74
6198;BME280;3132;42.622;23.328;2022-07-30T05:12:03;92879.09;;;22.81;59.31
6198;BME280;3132;42.622;23.328;2022-07-30T05:14:29;92886.44;;;23.22;58.23
6198;BME280;3132;42.622;23.328;2022-07-30T05:16:54;92870.13;;;22.55;60.38
6198;BME280;3132;42.622;23.328;2022-07-30T05:19:20;92880.44;;;23.25;57.72
6198;BME280;3132;42.622;23.328;2022-07-30T05:21:46;92880.22;;;23.15;58.96
6198;BME280;3132;42.622;23.328;2022-07-30T05:24:11;92884.16;;;22.86;59.01
6198;BME280;3132;42.622;23.328;2022-07-30T05:26:37;92886.22;;;23.27;59.38
6198;BME280;3132;42.622;23.328;2022-07-30T05:29:03;92886.00;;;23.01;60.27
6198;BME280;3132;42.622;23.328;2022-07-30T05:31:28;92889.31;;;23.29;59.45
6198;BME280;3132;42.622;23.328;2022-07-30T05:33:54;92869.19;;;23.16;59.02
6198;BME280;3132;42.622;23.328;2022-07-30T05:36:19;92892.53;;;23.57;58.14
6198;BME280;3132;42.622;23.328;2022-07-30T05:38:48;92894.34;;;23.72;57.54
6198;BME280;3132;42.622;23.328;2022-07-30T05:41:13;92885.69;;;23.22;59.20
6198;BME280;3132;42.622;23.328;2022-07-30T05:43:39;92871.59;;;23.21;57.97
6198;BME280;3132;42.622;23.328;2022-07-30T05:46:04;92888.00;;;23.23;58.88
6198;BME280;3132;42.622;23.328;2022-07-30T05:48:30;92896.75;;;23.97;59.03
6198;BME280;3132;42.622;23.328;2022-07-30T05:50:59;92896.50;;;24.05;57.79
6198;BME280;3132;42.622;23.328;2022-07-30T05:53:24;92895.81;;;25.58;54.25
6198;BME280;3132;42.622;23.328;2022-07-30T05:55:50;92893.66;;;27.34;47.21
6198;BME280;3132;42.622;23.328;2022-07-30T05:58:15;92906.59;;;29.87;41.88
6198;BME280;3132;42.622;23.328;2022-07-30T06:00:41;92914.53;;;32.39;37.46
6198;BME280;3132;42.622;23.328;2022-07-30T06:03:07;92912.00;;;36.09;30.50
6198;BME280;3132;42.622;23.328;2022-07-30T06:05:32;92933.09;;;37.59;27.08
6198;BME280;3132;42.622;23.328;2022-07-30T06:07:57;92931.31;;;38.33;26.29
6198;BME280;3132;42.622;23.328;2022-07-30T06:10:23;92937.84;;;37.08;27.18
6198;BME280;3132;42.622;23.328;2022-07-30T06:12:48;92944.84;;;38.03;25.47
6198;BME280;3132;42.622;23.328;2022-07-30T06:15:14;92936.50;;;37.51;25.03
6198;BME280;3132;42.622;23.328;2022-07-30T06:17:44;92940.69;;;36.92;26.76
6198;BME280;3132;42.622;23.328;2022-07-30T06:20:11;92944.16;;;36.93;26.82
6198;BME280;3132;42.622;23.328;2022-07-30T06:22:37;92947.78;;;38.51;24.88
6198;BME280;3132;42.622;23.328;2022-07-30T06:25:03;92948.91;;;39.55;23.37
6198;BME280;3132;42.622;23.328;2022-07-30T06:27:28;92950.28;;;39.77;23.35
6198;BME280;3132;42.622;23.328;2022-07-30T06:29:53;92946.16;;;38.54;23.65
6198;BME280;3132;42.622;23.328;2022-07-30T06:32:19;92932.97;;;39.14;23.94
6198;BME280;3132;42.622;23.328;2022-07-30T06:34:44;92936.97;;;38.91;23.75
6198;BME280;3132;42.622;23.328;2022-07-30T06:37:10;92940.09;;;39.11;22.83
6198;BME280;3132;42.622;23.328;2022-07-30T06:39:35;92941.06;;;37.54;26.00
6198;BME280;3132;42.622;23.328;2022-07-30T06:42:01;92921.47;;;33.85;30.88
6198;BME280;3132;42.622;23.328;2022-07-30T06:44:26;92910.97;;;31.41;35.32
6198;BME280;3132;42.622;23.328;2022-07-30T06:46:52;92888.56;;;29.77;39.44
6198;BME280;3132;42.622;23.328;2022-07-30T06:49:17;92885.63;;;29.04;41.14
6198;BME280;3132;42.622;23.328;2022-07-30T06:51:43;92891.00;;;28.52;43.34
6198;BME280;3132;42.622;23.328;2022-07-30T06:54:10;92892.00;;;27.91;44.37
6198;BME280;3132;42.622;23.328;2022-07-30T06:56:35;92896.28;;;28.16;44.25
6198;BME280;3132;42.622;23.328;2022-07-30T06:59:01;92890.31;;;27.62;45.05
6198;BME280;3132;42.622;23.328;2022-07-30T07:01:26;92891.38;;;27.40;46.39
6198;BME280;3132;42.622;23.328;2022-07-30T07:03:52;92879.00;;;27.25;47.60
6198;BME280;3132;42.622;23.328;2022-07-30T07:06:17;92877.19;;;27.43;47.54
6198;BME280;3132;42.622;23.328;2022-07-30T07:08:43;92876.88;;;27.51;46.79
6198;BME280;3132;42.622;23.328;2022-07-30T07:11:08;92868.16;;;27.07;46.14
6198;BME280;3132;42.622;23.328;2022-07-30T07:13:34;92871.13;;;26.92;47.05
6198;BME280;3132;42.622;23.328;2022-07-30T07:15:59;92880.97;;;26.73;48.86
6198;BME280;3132;42.622;23.328;2022-07-30T07:18:25;92875.88;;;26.61;48.28
6198;BME280;3132;42.622;23.328;2022-07-30T07:20:50;92873.69;;;26.70;48.28
6198;BME280;3132;42.622;23.328;2022-07-30T07:23:16;92878.28;;;26.73;48.86
6198;BME280;3132;42.622;23.328;2022-07-30T07:25:41;92854.22;;;26.81;48.08
6198;BME280;3132;42.622;23.328;2022-07-30T07:28:07;92863.19;;;26.58;47.75
6198;BME280;3132;42.622;23.328;2022-07-30T07:30:32;92871.75;;;26.67;49.24
6198;BME280;3132;42.622;23.328;2022-07-30T07:32:58;92874.47;;;26.74;48.52
6198;BME280;3132;42.622;23.328;2022-07-30T07:35:23;92863.44;;;26.87;48.39
6198;BME280;3132;42.622;23.328;2022-07-30T07:37:49;92866.53;;;26.89;47.14
6198;BME280;3132;42.622;23.328;2022-07-30T07:40:14;92862.94;;;26.67;47.75
6198;BME280;3132;42.622;23.328;2022-07-30T07:42:39;92853.38;;;26.69;49.14
6198;BME280;3132;42.622;23.328;2022-07-30T07:45:06;92867.03;;;27.08;47.97
6198;BME280;3132;42.622;23.328;2022-07-30T07:47:44;92863.34;;;27.27;47.78
6198;BME280;3132;42.622;23.328;2022-07-30T07:50:10;92866.41;;;27.29;47.12
6198;BME280;3132;42.622;23.328;2022-07-30T07:52:35;92863.78;;;27.36;47.15
6198;BME280;3132;42.622;23.328;2022-07-30T07:55:00;92869.94;;;27.47;47.28
6198;BME280;3132;42.622;23.328;2022-07-30T07:57:26;92856.41;;;27.22;47.10
6198;BME280;3132;42.622;23.328;2022-07-30T07:59:51;92868.38;;;27.39;46.68
6198;BME280;3132;42.622;23.328;2022-07-30T08:02:18;92859.56;;;27.35;46.71
6198;BME280;3132;42.622;23.328;2022-07-30T08:04:44;92863.06;;;27.49;45.80
6198;BME280;3132;42.622;23.328;2022-07-30T08:07:10;92864.59;;;27.54;45.41
6198;BME280;3132;42.622;23.328;2022-07-30T08:09:36;92872.28;;;27.52;46.23
6198;BME280;3132;42.622;23.328;2022-07-30T08:12:01;92864.28;;;27.62;46.87
6198;BME280;3132;42.622;23.328;2022-07-30T08:14:27;92844.72;;;27.62;45.21
6198;BME280;3132;42.622;23.328;2022-07-30T08:16:52;92872.00;;;27.81;45.22
6198;BME280;3132;42.622;23.328;2022-07-30T08:19:17;92863.91;;;27.71;45.61
6198;BME280;3132;42.622;23.328;2022-07-30T08:21:43;92866.72;;;28.02;44.88
6198;BME280;3132;42.622;23.328;2022-07-30T08:24:08;92851.75;;;28.05;44.38
6198;BME280;3132;42.622;23.328;2022-07-30T08:26:33;92863.34;;;28.37;44.05
6198;BME280;3132;42.622;23.328;2022-07-30T08:28:59;92855.69;;;28.60;43.08
6198;BME280;3132;42.622;23.328;2022-07-30T08:31:24;92862.59;;;28.61;42.90
6198;BME280;3132;42.622;23.328;2022-07-30T08:33:49;92858.00;;;28.62;42.83
6198;BME280;3132;42.622;23.328;2022-07-30T08:36:15;92862.97;;;28.77;42.32
6198;BME280;3132;42.622;23.328;2022-07-30T08:38:40;92858.75;;;28.73;42.20
6198;BME280;3132;42.622;23.328;2022-07-30T08:41:06;92861.00;;;28.28;42.73
6198;BME280;3132;42.622;23.328;2022-07-30T08:43:32;92847.81;;;27.71;43.27
6198;BME280;3132;42.622;23.328;2022-07-30T08:45:59;92859.81;;;27.98;43.61
6198;BME280;3132;42.622;23.328;2022-07-30T08:48:27;92856.38;;;28.01;44.98
6198;BME280;3132;42.622;23.328;2022-07-30T08:50:53;92838.03;;;28.59;42.38
6198;BME280;3132;42.622;23.328;2022-07-30T08:53:19;92849.53;;;28.77;42.87
6198;BME280;3132;42.622;23.328;2022-07-30T08:55:45;92854.50;;;29.00;42.08
6198;BME280;3132;42.622;23.328;2022-07-30T08:58:32;92844.56;;;28.76;41.06
6198;BME280;3132;42.622;23.328;2022-07-30T09:00:59;92839.56;;;28.50;42.54
6198;BME280;3132;42.622;23.328;2022-07-30T09:03:25;92828.00;;;28.84;39.55
6198;BME280;3132;42.622;23.328;2022-07-30T09:05:51;92838.38;;;28.93;40.57
6198;BME280;3132;42.622;23.328;2022-07-30T09:08:16;92837.22;;;29.01;40.89
6198;BME280;3132;42.622;23.328;2022-07-30T09:10:41;92824.91;;;29.14;40.53
6198;BME280;3132;42.622;23.328;2022-07-30T09:15:52;92819.53;;;29.03;38.55
6198;BME280;3132;42.622;23.328;2022-07-30T09:18:29;92824.16;;;29.06;40.38
6198;BME280;3132;42.622;23.328;2022-07-30T09:20:57;92819.53;;;29.24;37.39
6198;BME280;3132;42.622;23.328;2022-07-30T09:23:23;92809.56;;;29.14;38.75
6198;BME280;3132;42.622;23.328;2022-07-30T09:25:49;92809.50;;;29.28;38.55
6198;BME280;3132;42.622;23.328;2022-07-30T09:28:15;92811.75;;;29.40;37.31
6198;BME280;3132;42.622;23.328;2022-07-30T09:33:13;92813.56;;;29.79;35.99
6198;BME280;3132;42.622;23.328;2022-07-30T09:35:39;92807.84;;;29.66;37.14
6198;BME280;3132;42.622;23.328;2022-07-30T09:38:06;92797.84;;;29.59;36.12
6198;BME280;3132;42.622;23.328;2022-07-30T09:40:31;92807.19;;;29.30;38.45
6198;BME280;3132;42.622;23.328;2022-07-30T09:43:06;92813.19;;;29.73;36.91
6198;BME280;3132;42.622;23.328;2022-07-30T09:45:32;92810.91;;;29.57;36.53
6198;BME280;3132;42.622;23.328;2022-07-30T09:47:58;92805.88;;;29.81;37.16
6198;BME280;3132;42.622;23.328;2022-07-30T09:50:24;92794.84;;;29.43;36.37
6198;BME280;3132;42.622;23.328;2022-07-30T09:52:51;92793.75;;;29.23;37.60
6198;BME280;3132;42.622;23.328;2022-07-30T09:55:31;92797.22;;;29.31;37.28
6198;BME280;3132;42.622;23.328;2022-07-30T09:58:02;92800.59;;;29.45;37.00
6198;BME280;3132;42.622;23.328;2022-07-30T10:00:30;92792.94;;;29.40;36.73
6198;BME280;3132;42.622;23.328;2022-07-30T10:02:56;92789.84;;;29.45;37.76
6198;BME280;3132;42.622;23.328;2022-07-30T10:05:22;92787.03;;;29.77;37.73
6198;BME280;3132;42.622;23.328;2022-07-30T10:07:59;92790.69;;;30.08;37.89
6198;BME280;3132;42.622;23.328;2022-07-30T10:10:26;92778.38;;;30.07;36.81
6198;BME280;3132;42.622;23.328;2022-07-30T10:12:58;92775.03;;;29.89;37.79
6198;BME280;3132;42.622;23.328;2022-07-30T10:15:27;92781.09;;;30.00;38.09
6198;BME280;3132;42.622;23.328;2022-07-30T10:17:54;92778.91;;;29.84;36.40
6198;BME280;3132;42.622;23.328;2022-07-30T10:20:19;92777.78;;;29.82;36.49
6198;BME280;3132;42.622;23.328;2022-07-30T10:22:45;92781.47;;;30.02;37.39
6198;BME280;3132;42.622;23.328;2022-07-30T10:25:11;92776.72;;;30.20;37.57
6198;BME280;3132;42.622;23.328;2022-07-30T10:27:38;92776.13;;;30.53;36.92
6198;BME280;3132;42.622;23.328;2022-07-30T10:30:04;92767.53;;;30.17;38.01
6198;BME280;3132;42.622;23.328;2022-07-30T10:32:30;92768.97;;;30.32;36.26
6198;BME280;3132;42.622;23.328;2022-07-30T10:34:57;92759.19;;;30.52;37.01
6198;BME280;3132;42.622;23.328;2022-07-30T10:37:24;92766.56;;;30.45;36.13
6198;BME280;3132;42.622;23.328;2022-07-30T10:45:25;92745.25;;;30.13;36.93
6198;BME280;3132;42.622;23.328;2022-07-30T10:47:53;92744.66;;;30.43;35.75
6198;BME280;3132;42.622;23.328;2022-07-30T10:50:21;92748.19;;;30.33;36.39
6198;BME280;3132;42.622;23.328;2022-07-30T10:58:15;92739.03;;;29.61;37.68
6198;BME280;3132;42.622;23.328;2022-07-30T11:03:23;92716.34;;;29.66;38.34
6198;BME280;3132;42.622;23.328;2022-07-30T11:05:52;92723.22;;;29.70;36.70
6198;BME280;3132;42.622;23.328;2022-07-30T11:08:38;92720.97;;;29.58;37.13
6198;BME280;3132;42.622;23.328;2022-07-30T11:11:40;92725.66;;;29.40;37.80
6198;BME280;3132;42.622;23.328;2022-07-30T11:13:57;92707.06;;;29.70;39.15
6198;BME280;3132;42.622;23.328;2022-07-30T11:19:16;92708.19;;;30.28;38.61
6198;BME280;3132;42.622;23.328;2022-07-30T11:21:45;92707.47;;;30.24;39.10
6198;BME280;3132;42.622;23.328;2022-07-30T11:24:47;92724.72;;;30.74;36.97
6198;BME280;3132;42.622;23.328;2022-07-30T11:27:50;92706.59;;;30.78;37.35
6198;BME280;3132;42.622;23.328;2022-07-30T11:32:42;92699.66;;;30.36;38.92
6198;BME280;3132;42.622;23.328;2022-07-30T11:35:18;92701.22;;;30.34;38.55
6198;BME280;3132;42.622;23.328;2022-07-30T11:38:08;92704.28;;;30.36;37.91
6198;BME280;3132;42.622;23.328;2022-07-30T11:43:21;92704.25;;;30.39;37.51
6198;BME280;3132;42.622;23.328;2022-07-30T11:46:11;92696.00;;;30.57;36.74
6198;BME280;3132;42.622;23.328;2022-07-30T11:48:41;92692.84;;;30.21;39.45
6198;BME280;3132;42.622;23.328;2022-07-30T11:51:07;92674.53;;;30.02;38.21
6198;BME280;3132;42.622;23.328;2022-07-30T11:53:34;92689.88;;;30.09;38.37
6198;BME280;3132;42.622;23.328;2022-07-30T11:56:01;92684.41;;;30.23;37.43
6198;BME280;3132;42.622;23.328;2022-07-30T11:58:34;92677.97;;;30.50;37.30
6198;BME280;3132;42.622;23.328;2022-07-30T12:01:16;92674.44;;;30.94;37.45
6198;BME280;3132;42.622;23.328;2022-07-30T12:03:43;92661.22;;;31.03;37.15
6198;BME280;3132;42.622;23.328;2022-07-30T12:06:14;92668.94;;;31.01;35.66
6198;BME280;3132;42.622;23.328;2022-07-30T12:08:48;92675.00;;;31.08;36.86
6198;BME280;3132;42.622;23.328;2022-07-30T12:11:14;92658.31;;;30.87;38.98
6198;BME280;3132;42.622;23.328;2022-07-30T12:13:41;92676.09;;;30.84;38.02
6198;BME280;3132;42.622;23.328;2022-07-30T12:16:11;92673.00;;;30.82;39.28
6198;BME280;3132;42.622;23.328;2022-07-30T12:18:37;92669.22;;;30.39;39.61
6198;BME280;3132;42.622;23.328;2022-07-30T12:21:04;92665.47;;;30.30;41.32
6198;BME280;3132;42.622;23.328;2022-07-30T12:23:33;92666.38;;;30.53;41.66
6198;BME280;3132;42.622;23.328;2022-07-30T12:25:59;92651.16;;;30.70;41.41
6198;BME280;3132;42.622;23.328;2022-07-30T12:28:29;92657.09;;;30.58;40.11
6198;BME280;3132;42.622;23.328;2022-07-30T12:30:56;92652.94;;;30.50;38.76
6198;BME280;3132;42.622;23.328;2022-07-30T12:33:23;92654.31;;;31.02;39.21
6198;BME280;3132;42.622;23.328;2022-07-30T12:35:54;92644.09;;;30.86;40.71
6198;BME280;3132;42.622;23.328;2022-07-30T12:38:21;92633.59;;;30.92;39.09
6198;BME280;3132;42.622;23.328;2022-07-30T12:41:00;92628.03;;;31.06;39.70
6198;BME280;3132;42.622;23.328;2022-07-30T12:43:45;92623.94;;;30.94;38.59
6198;BME280;3132;42.622;23.328;2022-07-30T12:46:14;92615.66;;;31.08;40.08
6198;BME280;3132;42.622;23.328;2022-07-30T12:51:20;92596.22;;;30.94;38.14
6198;BME280;3132;42.622;23.328;2022-07-30T12:53:45;92602.50;;;31.14;38.87
6198;BME280;3132;42.622;23.328;2022-07-30T12:56:17;92606.25;;;31.20;38.84
6198;BME280;3132;42.622;23.328;2022-07-30T12:58:43;92591.53;;;31.24;37.04
6198;BME280;3132;42.622;23.328;2022-07-30T13:01:08;92600.59;;;31.11;37.19
6198;BME280;3132;42.622;23.328;2022-07-30T13:03:34;92591.81;;;30.77;36.95
6198;BME280;3132;42.622;23.328;2022-07-30T13:06:18;92589.59;;;30.65;38.33
6198;BME280;3132;42.622;23.328;2022-07-30T13:08:55;92581.94;;;30.30;39.06
6198;BME280;3132;42.622;23.328;2022-07-30T13:11:37;92585.16;;;30.14;40.66
6198;BME280;3132;42.622;23.328;2022-07-30T13:14:03;92578.31;;;30.06;39.56
6198;BME280;3132;42.622;23.328;2022-07-30T13:16:33;92579.53;;;30.39;38.83
6198;BME280;3132;42.622;23.328;2022-07-30T13:18:59;92575.03;;;30.29;38.17
6198;BME280;3132;42.622;23.328;2022-07-30T13:21:25;92567.41;;;30.20;38.35
6198;BME280;3132;42.622;23.328;2022-07-30T13:23:51;92564.47;;;30.04;40.79
6198;BME280;3132;42.622;23.328;2022-07-30T13:26:16;92569.81;;;30.08;40.60
6198;BME280;3132;42.622;23.328;2022-07-30T13:28:41;92569.00;;;30.48;38.24
6198;BME280;3132;42.622;23.328;2022-07-30T13:31:07;92560.88;;;30.55;38.84
6198;BME280;3132;42.622;23.328;2022-07-30T13:33:34;92564.41;;;30.82;38.50
6198;BME280;3132;42.622;23.328;2022-07-30T13:35:59;92563.25;;;31.09;37.43
6198;BME280;3132;42.622;23.328;2022-07-30T13:38:25;92559.19;;;30.94;37.54
6198;BME280;3132;42.622;23.328;2022-07-30T13:40:51;92563.31;;;30.76;37.50
6198;BME280;3132;42.622;23.328;2022-07-30T13:43:17;92567.44;;;30.54;38.31